Time;durP1;ratioP1;P1;durP2;ratioP2;P2;SDS_P1;SDS_P2;PMS_P1;PMS_P2;Temp;Humidity;BMP_temperature;BMP_pressure;BME280_temperature;BME280_humidity;BME280_pressure;Samples;Min_cycle;Max_cycle;Signal;HPM_P1;HPM_P2
2024/01/31 00:00:08;;;;;;;4.95;1.45;;;6.20;99.90;;;;;;5006934;28;20083;-60
2024/01/31 00:02:35;;;;;;;6.75;0.90;;;6.20;99.90;;;;;;4993266;28;20034;-60
2024/01/31 00:05:00;;;;;;;5.78;0.82;;;6.20;99.90;;;;;;4974568;28;20415;-60
2024/01/31 00:07:26;;;;;;;3.72;0.75;;;6.20;99.90;;;;;;4990032;28;20266;-59
2024/01/31 00:09:52;;;;;;;7.57;1.10;;;6.30;99.90;;;;;;5004970;28;20034;-59
2024/01/31 00:12:17;;;;;;;11.73;2.00;;;6.30;99.90;;;;;;4985530;28;20092;-60
2024/01/31 00:14:44;;;;;;;6.97;1.23;;;6.30;99.90;;;;;;4988944;28;20212;-60
2024/01/31 00:17:10;;;;;;;7.15;1.30;;;6.30;99.90;;;;;;4996061;28;20046;-59
2024/01/31 00:19:36;;;;;;;8.13;1.10;;;6.20;99.90;;;;;;4995680;28;20045;-60
2024/01/31 00:22:02;;;;;;;5.80;0.90;;;6.20;99.90;;;;;;4973978;28;20042;-60
2024/01/31 00:24:31;;;;;;;4.65;1.08;;;6.20;99.90;;;;;;5070427;28;20129;-60
2024/01/31 00:27:00;;;;;;;6.95;1.60;;;6.20;99.90;;;;;;4987829;28;20414;-60
2024/01/31 00:29:25;;;;;;;5.50;0.95;;;6.30;99.90;;;;;;4988612;28;20038;-60
2024/01/31 00:31:51;;;;;;;15.90;1.58;;;6.20;99.90;;;;;;5076379;28;20034;-59
2024/01/31 00:34:17;;;;;;;4.55;1.05;;;6.20;99.90;;;;;;4987108;28;20034;-60
2024/01/31 00:36:43;;;;;;;6.00;1.17;;;6.20;99.90;;;;;;5008434;28;20094;-60
2024/01/31 00:39:10;;;;;;;8.10;1.40;;;6.20;99.90;;;;;;4985872;28;20053;-60
2024/01/31 00:41:36;;;;;;;6.22;1.00;;;6.20;99.90;;;;;;4987977;28;20066;-60
2024/01/31 00:44:01;;;;;;;7.30;1.30;;;6.20;99.90;;;;;;4985135;28;20038;-60
2024/01/31 00:46:30;;;;;;;7.53;1.45;;;6.30;99.90;;;;;;4973896;28;20053;-60
2024/01/31 00:48:55;;;;;;;3.95;0.95;;;6.30;99.90;;;;;;4985097;28;20117;-60
2024/01/31 00:51:21;;;;;;;8.77;1.00;;;6.20;99.90;;;;;;5085430;27;20483;-60
2024/01/31 00:53:47;;;;;;;7.88;1.30;;;6.20;99.90;;;;;;4984934;28;20042;-60
2024/01/31 00:56:13;;;;;;;5.78;1.00;;;6.20;99.90;;;;;;4976156;28;20049;-60
2024/01/31 00:58:39;;;;;;;8.40;1.08;;;6.20;99.90;;;;;;4983714;28;20230;-60
2024/01/31 01:01:08;;;;;;;5.20;0.90;;;6.20;99.90;;;;;;5000847;28;20045;-60
2024/01/31 01:03:34;;;;;;;7.65;1.05;;;6.20;99.90;;;;;;5019461;28;20049;-60
2024/01/31 01:06:00;;;;;;;6.85;0.80;;;6.10;99.90;;;;;;5074164;28;20044;-60
2024/01/31 01:08:27;;;;;;;8.88;1.02;;;6.20;99.90;;;;;;4984295;28;20046;-59
2024/01/31 01:10:55;;;;;;;3.58;0.80;;;6.10;99.90;;;;;;4978717;28;20045;-60
2024/01/31 01:13:21;;;;;;;6.50;0.95;;;6.10;99.90;;;;;;5002030;28;20057;-60
2024/01/31 01:15:47;;;;;;;6.10;0.82;;;6.10;99.90;;;;;;5011881;28;20044;-60
2024/01/31 01:18:12;;;;;;;5.55;1.00;;;6.10;99.90;;;;;;4986865;28;20443;-60
2024/01/31 01:20:38;;;;;;;5.13;0.70;;;6.10;99.90;;;;;;4972473;28;20045;-60
2024/01/31 01:23:06;;;;;;;5.32;0.88;;;6.10;99.90;;;;;;4984145;28;20045;-60
2024/01/31 01:25:32;;;;;;;4.82;0.55;;;6.00;99.90;;;;;;5027655;27;20038;-60
2024/01/31 01:27:57;;;;;;;6.55;0.93;;;6.00;99.90;;;;;;5013939;28;20060;-59
2024/01/31 01:30:23;;;;;;;7.15;1.50;;;6.00;99.90;;;;;;5070849;28;20042;-60
2024/01/31 01:32:49;;;;;;;7.35;1.40;;;5.90;99.90;;;;;;4979504;28;20041;-59
2024/01/31 01:35:16;;;;;;;8.63;1.33;;;5.90;99.90;;;;;;4973841;28;20149;-60
2024/01/31 01:37:41;;;;;;;5.80;1.05;;;5.90;99.90;;;;;;4993360;28;20124;-60
2024/01/31 01:40:09;;;;;;;4.20;0.82;;;5.90;99.90;;;;;;5006950;28;20582;-59
2024/01/31 01:42:41;;;;;;;6.93;1.30;;;5.80;99.90;;;;;;4976934;28;20048;-60
2024/01/31 01:45:08;;;;;;;5.40;0.98;;;5.80;99.90;;;;;;4970683;28;20078;-60
2024/01/31 01:47:35;;;;;;;5.57;1.08;;;5.80;99.90;;;;;;4968169;28;20038;-60
2024/01/31 01:50:03;;;;;;;7.28;1.15;;;5.80;99.90;;;;;;5006700;28;20049;-60
2024/01/31 01:52:30;;;;;;;8.18;1.08;;;5.80;99.90;;;;;;4993204;28;20053;-60
2024/01/31 01:55:02;;;;;;;6.57;0.90;;;5.80;99.90;;;;;;4971878;28;20439;-60
2024/01/31 01:57:30;;;;;;;7.75;1.10;;;5.80;99.90;;;;;;5004252;28;20057;-60
2024/01/31 01:59:57;;;;;;;11.20;0.95;;;5.80;99.90;;;;;;4957163;28;20053;-60
2024/01/31 02:02:23;;;;;;;7.78;1.10;;;5.80;99.90;;;;;;4995670;28;20555;-60
2024/01/31 02:04:49;;;;;;;4.72;0.90;;;5.70;99.90;;;;;;4971471;28;20046;-60
2024/01/31 02:07:24;;;;;;;4.57;0.95;;;5.80;99.90;;;;;;4995708;28;20663;-60
2024/01/31 02:09:53;;;;;;;7.10;0.95;;;5.70;99.90;;;;;;4959925;28;20037;-60
2024/01/31 02:12:19;;;;;;;6.15;1.42;;;5.70;99.90;;;;;;4985633;28;20544;-60
2024/01/31 02:14:47;;;;;;;9.00;1.30;;;5.60;99.90;;;;;;4989043;28;20042;-60
2024/01/31 02:17:13;;;;;;;5.32;0.90;;;5.60;99.90;;;;;;4975544;28;20085;-59
2024/01/31 02:19:39;;;;;;;11.02;1.30;;;5.60;99.90;;;;;;4980557;28;20515;-60
2024/01/31 02:22:06;;;;;;;5.45;1.00;;;5.60;99.90;;;;;;4963955;28;20034;-60
2024/01/31 02:24:35;;;;;;;4.60;0.93;;;5.60;99.90;;;;;;4988482;28;20042;-59
2024/01/31 02:27:00;;;;;;;7.28;1.00;;;5.60;99.90;;;;;;4979419;28;20532;-60
2024/01/31 02:29:26;;;;;;;8.27;1.05;;;5.50;99.90;;;;;;4986396;28;20062;-60
2024/01/31 02:31:52;;;;;;;5.43;0.90;;;5.50;99.90;;;;;;4963629;28;20479;-60
2024/01/31 02:34:18;;;;;;;4.95;1.05;;;5.50;99.90;;;;;;4968205;28;20046;-59
2024/01/31 02:36:46;;;;;;;9.68;2.20;;;5.60;99.90;;;;;;4976987;28;20049;-60
2024/01/31 02:39:12;;;;;;;7.93;2.25;;;5.60;99.90;;;;;;5054937;28;20105;-59
2024/01/31 02:41:38;;;;;;;13.25;3.35;;;5.60;99.90;;;;;;4972973;28;20038;-59
2024/01/31 02:44:04;;;;;;;12.13;4.03;;;5.60;99.90;;;;;;4995123;28;20416;-60
2024/01/31 02:46:29;;;;;;;11.52;3.10;;;5.60;99.90;;;;;;4984406;28;20073;-59
2024/01/31 02:48:55;;;;;;;8.85;3.00;;;5.60;99.90;;;;;;4968488;28;20038;-60
2024/01/31 02:51:21;;;;;;;6.07;2.15;;;5.60;99.90;;;;;;4991358;28;20057;-60
2024/01/31 02:53:47;;;;;;;6.05;1.63;;;5.60;99.90;;;;;;4967122;28;20604;-60
2024/01/31 02:56:12;;;;;;;6.70;1.65;;;5.60;99.90;;;;;;5055887;28;20115;-60
2024/01/31 02:58:38;;;;;;;7.07;1.48;;;5.60;99.90;;;;;;4963076;28;20049;-59
2024/01/31 03:01:07;;;;;;;4.82;1.20;;;5.60;99.90;;;;;;4973552;28;20405;-60
2024/01/31 03:03:33;;;;;;;12.30;1.92;;;5.60;99.90;;;;;;4953890;28;20056;-60
2024/01/31 03:05:59;;;;;;;8.95;1.50;;;5.60;99.90;;;;;;5058967;28;20042;-60
2024/01/31 03:08:24;;;;;;;5.63;1.02;;;5.60;99.90;;;;;;4970800;28;20561;-60
2024/01/31 03:10:53;;;;;;;7.82;2.25;;;5.60;99.90;;;;;;4987468;28;20052;-60
2024/01/31 03:13:19;;;;;;;7.60;3.03;;;5.60;99.90;;;;;;5073427;28;20488;-60
2024/01/31 03:15:45;;;;;;;11.00;3.10;;;5.50;99.90;;;;;;4996898;28;20088;-60
2024/01/31 03:18:12;;;;;;;8.23;3.95;;;5.50;99.90;;;;;;4983144;28;20693;-59
2024/01/31 03:20:38;;;;;;;11.82;4.25;;;5.50;99.90;;;;;;4996935;28;21115;-60
2024/01/31 03:23:04;;;;;;;9.23;4.20;;;5.50;99.90;;;;;;4979201;28;20126;-59
2024/01/31 03:25:29;;;;;;;6.30;3.10;;;5.50;99.90;;;;;;4974859;28;20053;-58
2024/01/31 03:27:58;;;;;;;5.80;2.15;;;5.50;99.90;;;;;;4983604;28;20040;-59
2024/01/31 03:30:24;;;;;;;6.00;1.58;;;5.50;99.90;;;;;;4968346;28;20060;-60
2024/01/31 03:32:50;;;;;;;5.25;1.58;;;5.50;99.90;;;;;;4965476;28;20125;-60
2024/01/31 03:35:15;;;;;;;6.30;2.70;;;5.50;99.90;;;;;;4970602;28;20037;-60
2024/01/31 03:37:43;;;;;;;11.02;2.65;;;5.50;99.90;;;;;;5061578;28;20049;-59
2024/01/31 03:40:09;;;;;;;9.60;2.92;;;5.40;99.90;;;;;;4986700;28;20069;-60
2024/01/31 03:42:35;;;;;;;4.38;2.00;;;5.40;99.90;;;;;;4997652;28;20037;-59
2024/01/31 03:45:03;;;;;;;4.07;1.30;;;5.50;99.90;;;;;;4987108;28;20064;-59
2024/01/31 03:47:30;;;;;;;3.45;0.90;;;5.50;99.90;;;;;;4980783;28;20046;-59
2024/01/31 03:49:55;;;;;;;7.85;1.65;;;5.50;99.90;;;;;;4988606;28;20038;-60
2024/01/31 03:52:23;;;;;;;4.68;0.60;;;5.50;99.90;;;;;;5002770;23;20058;-62
2024/01/31 03:54:49;;;;;;;5.72;0.75;;;5.50;99.90;;;;;;5033855;28;20049;-63
2024/01/31 03:57:15;;;;;;;2.15;0.80;;;5.50;99.90;;;;;;5034871;28;20037;-63
2024/01/31 03:59:41;;;;;;;3.97;0.90;;;5.50;99.90;;;;;;5035818;28;20039;-63
2024/01/31 04:02:06;;;;;;;7.85;2.40;;;5.50;99.90;;;;;;5061906;28;20042;-63
2024/01/31 04:04:32;;;;;;;5.97;1.60;;;5.60;99.90;;;;;;5072745;28;20125;-63
2024/01/31 04:06:58;;;;;;;7.18;2.35;;;5.60;99.90;;;;;;5041030;28;20047;-62
2024/01/31 04:09:24;;;;;;;12.13;3.00;;;5.60;99.90;;;;;;5057334;28;20043;-63
2024/01/31 04:11:49;;;;;;;5.82;1.80;;;5.60;99.90;;;;;;5057328;28;20078;-63
2024/01/31 04:14:16;;;;;;;10.82;2.67;;;5.60;99.90;;;;;;5055923;28;20041;-63
2024/01/31 04:16:42;;;;;;;7.60;3.33;;;5.60;99.90;;;;;;5054082;28;20074;-63
2024/01/31 04:19:08;;;;;;;7.95;3.08;;;5.60;99.90;;;;;;5075321;28;20577;-63
2024/01/31 04:21:33;;;;;;;8.30;2.55;;;5.60;99.90;;;;;;5059701;28;20047;-62
2024/01/31 04:23:59;;;;;;;6.55;2.53;;;5.70;99.90;;;;;;5054537;28;20109;-62
2024/01/31 04:26:25;;;;;;;6.78;1.83;;;5.70;99.90;;;;;;5054081;28;20040;-62
2024/01/31 04:28:51;;;;;;;6.68;2.03;;;5.70;99.90;;;;;;5037052;28;20075;-62
2024/01/31 04:31:18;;;;;;;6.85;1.80;;;5.70;99.90;;;;;;5052259;28;20054;-63
2024/01/31 04:33:44;;;;;;;7.00;1.50;;;5.70;99.90;;;;;;5074554;28;20044;-63
2024/01/31 04:36:10;;;;;;;4.40;1.00;;;5.70;99.90;;;;;;5076335;28;20039;-63
2024/01/31 04:38:36;;;;;;;5.75;1.40;;;5.70;99.90;;;;;;5037551;28;20048;-63
2024/01/31 04:41:03;;;;;;;6.32;1.00;;;5.70;99.90;;;;;;5057932;28;20047;-63
2024/01/31 04:43:30;;;;;;;3.20;0.75;;;5.80;99.90;;;;;;5040282;28;20098;-63
2024/01/31 04:45:55;;;;;;;4.82;0.80;;;5.80;99.90;;;;;;5061997;28;20043;-62
2024/01/31 04:48:21;;;;;;;5.53;0.73;;;5.80;99.90;;;;;;5060251;28;20059;-63
2024/01/31 04:50:47;;;;;;;4.22;0.80;;;5.80;99.90;;;;;;5070336;28;20438;-63
2024/01/31 04:53:13;;;;;;;7.60;1.70;;;5.80;99.90;;;;;;5074524;28;20044;-63
2024/01/31 04:55:38;;;;;;;7.95;1.45;;;5.80;99.90;;;;;;5045271;28;20118;-63
2024/01/31 04:58:04;;;;;;;4.03;1.00;;;5.80;99.90;;;;;;5074457;28;20395;-63
2024/01/31 05:00:31;;;;;;;3.78;0.80;;;5.80;99.90;;;;;;5075077;28;20556;-63
2024/01/31 05:02:57;;;;;;;10.57;1.35;;;5.80;99.90;;;;;;5075088;28;20374;-62
2024/01/31 05:05:23;;;;;;;8.82;3.08;;;5.80;99.90;;;;;;5054239;28;20586;-63
2024/01/31 05:07:48;;;;;;;6.15;1.17;;;5.70;99.90;;;;;;5056146;28;20052;-63
2024/01/31 05:10:14;;;;;;;10.45;1.38;;;5.80;99.90;;;;;;5057515;28;20028;-63
2024/01/31 05:12:40;;;;;;;8.00;1.23;;;5.80;99.90;;;;;;5055664;28;20469;-62
2024/01/31 05:15:06;;;;;;;7.72;1.40;;;5.70;99.90;;;;;;5028189;28;20054;-63
2024/01/31 05:17:32;;;;;;;5.90;1.48;;;5.80;99.90;;;;;;5054699;28;20048;-63
2024/01/31 05:19:59;;;;;;;6.45;1.70;;;5.80;99.90;;;;;;5056387;28;22113;-63
2024/01/31 05:22:26;;;;;;;13.30;1.92;;;5.80;99.90;;;;;;5060326;28;20376;-63
2024/01/31 05:24:51;;;;;;;9.32;1.70;;;5.80;99.90;;;;;;5059151;28;20410;-63
2024/01/31 05:27:17;;;;;;;10.55;1.33;;;5.80;99.90;;;;;;5054462;28;20060;-63
2024/01/31 05:29:43;;;;;;;6.97;1.10;;;5.70;99.90;;;;;;5040527;28;20094;-63
2024/01/31 05:32:09;;;;;;;5.75;1.75;;;5.80;99.90;;;;;;5058849;28;20037;-63
2024/01/31 05:34:34;;;;;;;9.60;2.40;;;5.70;99.90;;;;;;5058684;28;20043;-62
2024/01/31 05:37:00;;;;;;;9.13;1.75;;;5.70;99.90;;;;;;5036938;28;20044;-63
2024/01/31 05:39:28;;;;;;;9.38;1.75;;;5.60;99.90;;;;;;5038342;28;20052;-62
2024/01/31 05:41:53;;;;;;;5.78;1.45;;;5.60;99.90;;;;;;5060021;28;20170;-62
2024/01/31 05:44:21;;;;;;;9.68;1.45;;;5.60;99.90;;;;;;5055038;28;20426;-62
2024/01/31 05:46:46;;;;;;;8.25;1.30;;;5.60;99.90;;;;;;5040546;28;20052;-63
2024/01/31 05:49:13;;;;;;;7.68;1.35;;;5.50;99.90;;;;;;5036427;28;20109;-63
2024/01/31 05:51:39;;;;;;;12.02;1.30;;;5.50;99.90;;;;;;5057173;28;21805;-62
2024/01/31 05:54:04;;;;;;;7.82;1.33;;;5.50;99.90;;;;;;5053363;28;20051;-63
2024/01/31 05:56:30;;;;;;;4.97;1.30;;;5.50;99.90;;;;;;5040190;28;20058;-63
2024/01/31 05:58:56;;;;;;;12.32;1.77;;;5.50;99.90;;;;;;5051370;28;20048;-63
2024/01/31 06:01:22;;;;;;;7.78;1.20;;;5.40;99.90;;;;;;5059438;28;20070;-62
2024/01/31 06:03:47;;;;;;;10.32;1.50;;;5.40;99.90;;;;;;5059072;28;20062;-63
2024/01/31 06:06:13;;;;;;;6.32;2.22;;;5.30;99.90;;;;;;5083063;28;20386;-63
2024/01/31 06:08:39;;;;;;;4.07;0.90;;;5.30;99.90;;;;;;5054702;28;20070;-63
2024/01/31 06:11:08;;;;;;;7.65;1.35;;;5.20;99.90;;;;;;5055381;28;20087;-63
2024/01/31 06:13:53;;;;;;;7.50;1.38;;;5.20;99.90;;;;;;5057409;28;20044;-63
2024/01/31 06:16:19;;;;;;;10.40;1.23;;;5.10;99.90;;;;;;5059282;28;20035;-63
2024/01/31 06:18:45;;;;;;;7.10;1.40;;;5.20;99.90;;;;;;5041310;28;20498;-62
2024/01/31 06:21:11;;;;;;;6.45;1.50;;;5.10;99.90;;;;;;5076873;28;20133;-63
2024/01/31 06:23:36;;;;;;;8.75;2.47;;;5.10;99.90;;;;;;5056132;28;20052;-62
2024/01/31 06:26:02;;;;;;;9.60;3.35;;;5.00;99.90;;;;;;5042554;28;20036;-62
2024/01/31 06:28:28;;;;;;;9.02;2.55;;;5.00;99.90;;;;;;5057709;28;20055;-63
2024/01/31 06:31:24;;;;;;;6.25;1.90;;;5.00;99.90;;;;;;5068038;28;20113;-63
2024/01/31 06:33:49;;;;;;;9.05;1.70;;;5.00;99.90;;;;;;5059448;28;20048;-62
2024/01/31 06:36:15;;;;;;;3.13;1.20;;;4.90;99.90;;;;;;5050891;28;20032;-62
2024/01/31 06:42:22;;;;;;;6.25;1.60;;;4.90;99.90;;;;;;5081746;28;20062;-63
2024/01/31 06:44:48;;;;;;;4.60;1.52;;;5.00;99.90;;;;;;5082932;28;20414;-63
2024/01/31 06:47:14;;;;;;;6.13;1.33;;;4.90;99.90;;;;;;5035587;28;20102;-63
2024/01/31 06:49:41;;;;;;;17.48;2.58;;;4.90;99.90;;;;;;5070878;28;20510;-63
2024/01/31 06:52:07;;;;;;;7.95;1.55;;;4.90;99.90;;;;;;5050613;28;20048;-62
2024/01/31 06:54:32;;;;;;;6.70;1.63;;;5.00;99.90;;;;;;5049499;28;20123;-63
2024/01/31 06:56:58;;;;;;;6.30;1.83;;;5.00;99.90;;;;;;5064744;28;20141;-63
2024/01/31 06:59:24;;;;;;;7.47;2.08;;;5.00;99.90;;;;;;5066794;28;20089;-63
2024/01/31 07:01:50;;;;;;;8.90;1.60;;;5.00;99.90;;;;;;5066437;28;20077;-63
2024/01/31 07:04:15;;;;;;;9.10;1.88;;;5.00;99.90;;;;;;5051276;28;20513;-63
2024/01/31 07:06:41;;;;;;;7.07;2.05;;;5.00;99.90;;;;;;5067884;28;20390;-63
2024/01/31 07:09:07;;;;;;;8.20;2.15;;;5.00;99.90;;;;;;5066814;28;20044;-63
2024/01/31 07:11:33;;;;;;;7.03;2.25;;;5.00;99.90;;;;;;5051430;28;20138;-63
2024/01/31 07:13:58;;;;;;;6.97;2.55;;;5.10;99.90;;;;;;5068311;28;20687;-63
2024/01/31 07:16:24;;;;;;;14.35;3.50;;;5.10;99.90;;;;;;5052339;28;20047;-63
2024/01/31 07:18:50;;;;;;;9.23;4.25;;;5.10;99.90;;;;;;5064825;28;20067;-63
2024/01/31 07:21:25;;;;;;;8.90;3.50;;;5.10;99.90;;;;;;5067109;28;20044;-63
2024/01/31 07:23:52;;;;;;;10.48;4.40;;;5.10;99.90;;;;;;5066373;28;20356;-63
2024/01/31 07:26:23;;;;;;;8.60;3.22;;;5.00;99.90;;;;;;5045259;28;20052;-63
2024/01/31 07:28:49;;;;;;;8.18;3.60;;;5.10;99.90;;;;;;5063729;28;20430;-62
2024/01/31 07:31:15;;;;;;;6.85;3.05;;;5.10;99.90;;;;;;5079199;28;20040;-63
2024/01/31 07:33:41;;;;;;;7.13;2.88;;;5.10;99.90;;;;;;5082732;28;20086;-63
2024/01/31 07:36:07;;;;;;;9.82;2.85;;;5.10;99.90;;;;;;5064721;28;20036;-63
2024/01/31 07:38:33;;;;;;;6.00;2.55;;;5.10;99.90;;;;;;5066265;28;20106;-63
2024/01/31 07:40:59;;;;;;;8.35;3.10;;;5.10;99.90;;;;;;5066366;28;20042;-63
2024/01/31 07:43:25;;;;;;;8.38;3.03;;;5.20;99.90;;;;;;5065842;28;20542;-63
2024/01/31 07:49:32;;;;;;;6.82;2.85;;;5.20;99.90;;;;;;5081555;28;20088;-63
2024/01/31 07:51:58;;;;;;;7.20;3.10;;;5.30;99.90;;;;;;5070196;28;20044;-63
2024/01/31 07:54:23;;;;;;;8.85;3.47;;;5.30;99.90;;;;;;5063677;28;20039;-63
2024/01/31 08:04:10;;;;;;;9.43;5.15;;;5.40;99.90;;;;;;5058005;28;20040;-63
2024/01/31 08:06:44;;;;;;;7.28;4.53;;;5.40;99.90;;;;;;5044146;28;20651;-63
2024/01/31 08:09:11;;;;;;;6.10;3.88;;;5.40;99.90;;;;;;5056144;28;20115;-62
2024/01/31 08:11:44;;;;;;;6.13;3.95;;;5.50;99.90;;;;;;5064102;28;20046;-62
2024/01/31 08:14:10;;;;;;;7.75;4.85;;;5.50;99.90;;;;;;5063063;28;20109;-62
2024/01/31 08:16:37;;;;;;;7.10;4.45;;;5.60;99.90;;;;;;5063462;28;20059;-62
2024/01/31 08:19:03;;;;;;;7.50;4.20;;;5.50;99.90;;;;;;5066559;28;20070;-63
2024/01/31 08:21:32;;;;;;;7.97;4.53;;;5.60;99.90;;;;;;5087750;28;20466;-63
2024/01/31 08:24:01;;;;;;;7.88;4.85;;;5.60;99.90;;;;;;5089356;28;20079;-63
2024/01/31 08:26:27;;;;;;;5.40;4.72;;;5.60;99.90;;;;;;5077958;28;20145;-63
2024/01/31 08:28:54;;;;;;;9.45;4.75;;;5.60;99.90;;;;;;5068672;28;20050;-63
2024/01/31 08:31:20;;;;;;;8.48;5.85;;;5.60;99.90;;;;;;5053625;28;20145;-63
2024/01/31 08:33:46;;;;;;;9.27;6.13;;;5.70;99.90;;;;;;5069249;28;20060;-62
2024/01/31 08:36:12;;;;;;;10.43;5.85;;;5.70;99.90;;;;;;5071203;28;20509;-63
2024/01/31 08:38:39;;;;;;;9.82;6.25;;;5.70;99.90;;;;;;5088523;28;20040;-63
2024/01/31 08:41:05;;;;;;;7.63;5.82;;;5.70;99.90;;;;;;5067663;28;20039;-63
2024/01/31 08:43:31;;;;;;;10.60;6.32;;;5.80;99.90;;;;;;5072607;28;20120;-63
2024/01/31 08:46:01;;;;;;;11.68;7.47;;;5.80;99.90;;;;;;5070910;28;20056;-63
2024/01/31 08:48:27;;;;;;;8.45;6.70;;;5.80;99.90;;;;;;5052510;28;20039;-63
2024/01/31 08:50:53;;;;;;;13.02;7.97;;;5.80;99.90;;;;;;5072023;28;20050;-63
2024/01/31 08:53:19;;;;;;;9.15;6.28;;;5.90;99.90;;;;;;5054602;28;20032;-63
2024/01/31 08:55:45;;;;;;;8.93;6.18;;;5.90;99.90;;;;;;5056596;28;20414;-63
2024/01/31 08:58:13;;;;;;;9.98;6.50;;;5.90;99.90;;;;;;5037329;28;20063;-63
2024/01/31 09:00:39;;;;;;;10.23;6.80;;;5.90;99.90;;;;;;5054637;28;20040;-63
2024/01/31 09:03:06;;;;;;;9.82;6.82;;;6.00;99.90;;;;;;5056596;28;20040;-63
2024/01/31 09:05:32;;;;;;;11.05;7.55;;;6.00;99.90;;;;;;5086462;28;20067;-63
2024/01/31 09:07:59;;;;;;;9.23;7.32;;;6.00;99.90;;;;;;5064736;28;21974;-63
2024/01/31 09:10:26;;;;;;;10.45;7.07;;;6.10;99.90;;;;;;5076832;28;20394;-63
2024/01/31 09:12:53;;;;;;;12.32;7.00;;;6.10;99.90;;;;;;5063545;28;20137;-62
2024/01/31 09:15:21;;;;;;;9.73;7.28;;;6.20;99.90;;;;;;5086532;28;20421;-63
2024/01/31 09:17:47;;;;;;;12.82;7.13;;;6.20;99.90;;;;;;5071343;28;20675;-63
2024/01/31 09:20:14;;;;;;;12.40;7.82;;;6.20;99.90;;;;;;5069172;28;20271;-63
2024/01/31 09:22:40;;;;;;;11.32;7.68;;;6.20;99.90;;;;;;5056863;28;20328;-63
2024/01/31 09:25:06;;;;;;;10.05;7.55;;;6.30;99.90;;;;;;5053944;28;20063;-63
2024/01/31 09:27:32;;;;;;;11.20;8.38;;;6.30;99.90;;;;;;5066323;28;20054;-63
2024/01/31 09:30:13;;;;;;;13.10;7.68;;;6.30;99.90;;;;;;5071799;28;20044;-63
2024/01/31 09:32:39;;;;;;;12.95;8.05;;;6.30;99.90;;;;;;5045783;28;20051;-63
2024/01/31 09:35:05;;;;;;;12.30;8.73;;;6.30;99.90;;;;;;5085192;28;20406;-63
2024/01/31 09:37:34;;;;;;;12.60;8.57;;;6.40;99.90;;;;;;5083967;28;20118;-63
2024/01/31 09:40:00;;;;;;;10.07;7.50;;;6.40;99.90;;;;;;5073115;28;20170;-63
2024/01/31 09:42:29;;;;;;;12.02;9.02;;;6.40;99.90;;;;;;5071929;28;20100;-63
2024/01/31 09:44:56;;;;;;;12.30;9.50;;;6.50;99.90;;;;;;5068245;28;20036;-63
2024/01/31 09:47:28;;;;;;;13.27;9.00;;;6.50;99.90;;;;;;5050473;28;20051;-63
2024/01/31 09:49:56;;;;;;;12.80;9.43;;;6.50;99.90;;;;;;5068987;28;20198;-63
2024/01/31 09:52:29;;;;;;;11.55;8.35;;;6.50;99.90;;;;;;5054541;28;20040;-63
2024/01/31 09:54:58;;;;;;;16.08;9.23;;;6.60;99.90;;;;;;5078650;28;20384;-64
2024/01/31 09:57:25;;;;;;;14.07;8.50;;;6.60;99.90;;;;;;5066387;28;20048;-63
2024/01/31 09:59:51;;;;;;;11.50;8.30;;;6.60;99.90;;;;;;5064202;28;20170;-64
2024/01/31 10:02:17;;;;;;;10.90;7.93;;;6.60;99.90;;;;;;5064919;28;20132;-65
2024/01/31 10:04:49;;;;;;;11.73;8.27;;;6.60;99.90;;;;;;5051023;28;20901;-64
2024/01/31 10:07:30;;;;;;;12.18;8.30;;;6.70;99.90;;;;;;5065627;28;20040;-64
2024/01/31 10:09:57;;;;;;;11.32;7.82;;;6.70;99.90;;;;;;5063967;28;20387;-64
2024/01/31 10:12:23;;;;;;;10.68;7.50;;;6.80;99.90;;;;;;5054239;28;20487;-64
2024/01/31 10:14:55;;;;;;;11.02;8.45;;;6.80;99.90;;;;;;5062529;28;20462;-65
2024/01/31 10:17:22;;;;;;;11.48;7.90;;;6.80;99.90;;;;;;5066529;28;20044;-64
2024/01/31 10:19:49;;;;;;;13.55;8.52;;;6.80;99.90;;;;;;5056046;28;20078;-64
2024/01/31 10:22:16;;;;;;;10.75;8.07;;;6.90;99.90;;;;;;5069466;28;20467;-64
2024/01/31 10:24:48;;;;;;;12.48;8.10;;;6.90;99.90;;;;;;5070242;28;20035;-64
2024/01/31 10:27:14;;;;;;;10.88;8.38;;;6.90;99.90;;;;;;5051704;28;20077;-64
2024/01/31 10:29:40;;;;;;;12.00;8.10;;;6.90;99.90;;;;;;5065146;28;20076;-64
2024/01/31 10:32:06;;;;;;;12.00;8.20;;;6.90;99.90;;;;;;5062601;28;20074;-64
2024/01/31 10:34:36;;;;;;;13.18;8.23;;;6.90;99.90;;;;;;5045491;28;20047;-65
2024/01/31 10:37:03;;;;;;;10.57;7.70;;;6.90;99.90;;;;;;5054969;28;20425;-65
2024/01/31 10:39:31;;;;;;;11.13;7.25;;;6.90;99.90;;;;;;5063474;28;20040;-64
2024/01/31 10:41:59;;;;;;;11.35;7.82;;;6.90;99.90;;;;;;5063842;28;20090;-65
2024/01/31 10:44:25;;;;;;;12.60;7.95;;;6.90;99.90;;;;;;5062249;28;20218;-65
2024/01/31 10:46:51;;;;;;;12.45;7.50;;;7.00;99.90;;;;;;5063307;28;20115;-65
2024/01/31 10:49:16;;;;;;;10.55;7.53;;;7.00;99.90;;;;;;5063601;28;20036;-65
2024/01/31 10:51:49;;;;;;;9.80;6.70;;;7.00;99.90;;;;;;5054137;28;20036;-65
2024/01/31 10:54:17;;;;;;;11.00;6.88;;;7.00;99.90;;;;;;5047906;28;20048;-65
2024/01/31 10:56:45;;;;;;;9.63;6.28;;;7.00;99.90;;;;;;5068669;28;20043;-65
2024/01/31 10:59:12;;;;;;;10.73;7.00;;;7.00;99.90;;;;;;5051526;28;20473;-65
2024/01/31 11:01:37;;;;;;;8.88;6.32;;;7.00;99.90;;;;;;5063527;28;20055;-65
2024/01/31 11:04:07;;;;;;;8.70;6.38;;;7.00;99.90;;;;;;5065924;28;20032;-65
2024/01/31 11:06:40;;;;;;;8.88;6.18;;;7.00;99.90;;;;;;5065773;28;20432;-65
2024/01/31 11:09:06;;;;;;;7.90;5.82;;;7.00;99.90;;;;;;5062205;28;20050;-64
2024/01/31 11:11:36;;;;;;;9.70;5.75;;;7.00;99.90;;;;;;5063577;28;20044;-65
2024/01/31 11:14:09;;;;;;;8.82;6.13;;;7.00;99.90;;;;;;5065733;28;20492;-64
2024/01/31 11:16:34;;;;;;;7.43;5.45;;;7.10;99.90;;;;;;5062725;28;20078;-64
2024/01/31 11:19:03;;;;;;;7.95;5.25;;;7.00;99.90;;;;;;5027879;28;20415;-64
2024/01/31 11:21:37;;;;;;;7.55;5.10;;;7.10;99.90;;;;;;5076838;28;20086;-65
2024/01/31 11:24:03;;;;;;;6.93;5.00;;;7.10;99.90;;;;;;5067937;28;20172;-64
2024/01/31 11:26:33;;;;;;;7.90;5.25;;;7.00;99.90;;;;;;5068387;28;20040;-65
2024/01/31 11:29:03;;;;;;;7.45;4.93;;;7.10;99.90;;;;;;5048852;28;20117;-64
2024/01/31 11:31:29;;;;;;;7.95;4.65;;;7.10;99.90;;;;;;5058474;28;20048;-66
2024/01/31 11:33:57;;;;;;;7.45;4.65;;;7.10;99.90;;;;;;5057632;28;20043;-65
2024/01/31 11:36:23;;;;;;;9.15;5.55;;;7.10;99.90;;;;;;5057849;28;20586;-65
2024/01/31 11:38:50;;;;;;;10.35;5.32;;;7.10;99.90;;;;;;5062050;28;20058;-64
2024/01/31 11:41:16;;;;;;;7.57;4.72;;;7.10;99.90;;;;;;5062376;28;20036;-64
2024/01/31 11:43:42;;;;;;;7.65;5.50;;;7.20;99.90;;;;;;5061425;28;20040;-65
2024/01/31 11:46:07;;;;;;;7.43;5.30;;;7.20;99.90;;;;;;5059483;28;21245;-65
2024/01/31 11:48:33;;;;;;;8.02;5.40;;;7.20;99.90;;;;;;5062588;28;20052;-65
2024/01/31 11:50:59;;;;;;;9.75;5.50;;;7.20;99.90;;;;;;5047815;28;20044;-64
2024/01/31 11:53:25;;;;;;;7.00;5.25;;;7.20;99.90;;;;;;5079853;28;20135;-64
2024/01/31 11:55:51;;;;;;;8.48;5.90;;;7.30;99.90;;;;;;5055579;28;20390;-65
2024/01/31 11:58:17;;;;;;;8.30;5.10;;;7.30;99.90;;;;;;5050009;28;20067;-64
2024/01/31 12:00:44;;;;;;;6.82;4.40;;;7.30;99.90;;;;;;5059677;28;20413;-64
2024/01/31 12:03:11;;;;;;;6.90;4.80;;;7.30;99.90;;;;;;5045940;28;20511;-64
2024/01/31 12:05:36;;;;;;;7.63;5.20;;;7.30;99.90;;;;;;5075051;28;20050;-64
2024/01/31 12:08:05;;;;;;;7.50;4.78;;;7.30;99.90;;;;;;5066856;28;20044;-63
2024/01/31 12:10:31;;;;;;;7.80;5.00;;;7.30;99.90;;;;;;5065114;28;20047;-64
2024/01/31 12:13:00;;;;;;;6.55;4.90;;;7.30;99.90;;;;;;5069141;28;20036;-65
2024/01/31 12:15:27;;;;;;;10.65;4.38;;;7.40;99.90;;;;;;5054793;28;20109;-64
2024/01/31 12:17:56;;;;;;;7.10;4.63;;;7.40;99.90;;;;;;5069830;28;20036;-65
2024/01/31 12:20:22;;;;;;;5.88;4.40;;;7.40;99.90;;;;;;5052871;28;20067;-63
2024/01/31 12:23:29;;;;;;;6.53;4.38;;;7.40;99.90;;;;;;5069026;28;20503;-63
2024/01/31 12:25:58;;;;;;;7.38;4.72;;;7.40;99.90;;;;;;5064262;28;20075;-64
2024/01/31 12:28:25;;;;;;;5.85;4.00;;;7.40;99.90;;;;;;5070444;28;20109;-64
2024/01/31 12:30:54;;;;;;;5.38;4.30;;;7.40;99.90;;;;;;5074434;28;20113;-64
2024/01/31 12:33:20;;;;;;;7.50;4.35;;;7.40;99.90;;;;;;5055037;28;20031;-64
2024/01/31 12:35:46;;;;;;;7.35;4.78;;;7.50;99.90;;;;;;5053010;28;20043;-64
2024/01/31 12:38:15;;;;;;;6.90;5.03;;;7.50;99.90;;;;;;5054845;28;20398;-64
2024/01/31 12:40:40;;;;;;;7.85;5.43;;;7.50;99.90;;;;;;5049792;28;20137;-64
2024/01/31 12:43:06;;;;;;;7.85;4.97;;;7.40;99.90;;;;;;5071050;28;20418;-63
2024/01/31 12:45:35;;;;;;;11.52;6.22;;;7.50;99.90;;;;;;5051286;28;20051;-64
2024/01/31 12:48:01;;;;;;;11.30;5.60;;;7.50;99.90;;;;;;5084269;28;20119;-64
2024/01/31 12:50:26;;;;;;;10.57;6.95;;;7.50;99.90;;;;;;5053015;28;20131;-65
2024/01/31 12:52:52;;;;;;;10.68;6.90;;;7.50;99.90;;;;;;5069737;28;20045;-64
2024/01/31 12:55:19;;;;;;;10.07;6.90;;;7.50;99.90;;;;;;5054015;28;20109;-64
2024/01/31 12:57:46;;;;;;;9.77;6.65;;;7.50;99.90;;;;;;5070449;28;20491;-63
2024/01/31 13:00:12;;;;;;;9.00;6.32;;;7.50;99.90;;;;;;5073552;28;20070;-64
2024/01/31 13:02:38;;;;;;;12.23;7.38;;;7.50;99.90;;;;;;5062915;28;20321;-64
2024/01/31 13:05:04;;;;;;;9.70;7.25;;;7.50;99.90;;;;;;5084102;28;20040;-65
2024/01/31 13:07:30;;;;;;;9.95;7.03;;;7.50;99.90;;;;;;5050539;28;20052;-65